Flight Track Log - Related Links

Times and Time Zones

All times are in EDT time to prevent confusion due to time zone crossing. See the CSN6874 flight status page for this flight to view local times or setup timezone preferences in your user account.

Time Position Orientation Groundspeed Altitude Reporting Facility
EDT Latitude Longitude Course Direction KTS MPH feet Rate Location/Type
Sat 10:07:00 PM 41.8314 83.2036 55° Northeast  Level Estimated
Sat 10:08:00 PM 41.9444 83.4209 55° Northeast  Level Estimated
Sat 10:09:00 PM 42.0569 83.6391 55° Northeast  Level Estimated
Sat 10:10:00 PM 42.1691 83.8580 55° Northeast  Level Estimated
Sat 10:11:00 PM 42.2808 84.0777 55° Northeast  Level Estimated
Sat 10:12:00 PM 42.3921 84.2981 56° Northeast  Level Estimated
Sat 10:13:00 PM 42.5030 84.5194 56° Northeast  Level Estimated
Sat 10:14:00 PM 42.6134 84.7414 56° Northeast  Level Estimated
Sat 10:15:00 PM 42.7234 84.9642 56° Northeast  Level Estimated
Sat 10:16:00 PM 42.8330 85.1878 56° Northeast  Level Estimated
Sat 10:17:00 PM 42.9422 85.4122 56° Northeast  Level Estimated
Sat 10:18:00 PM 43.0509 85.6374 56° Northeast  Level Estimated
Sat 10:19:00 PM 43.1591 85.8634 57° Northeast  Level Estimated
Sat 10:20:00 PM 43.2669 86.0902 57° Northeast  Level Estimated
Sat 10:21:00 PM 43.3743 86.3178 57° Northeast  Level Estimated
Sat 10:22:00 PM 43.4812 86.5462 57° Northeast  Level Estimated
Sat 10:23:00 PM 43.5877 86.7755 57° Northeast  Level Estimated
Sat 10:24:00 PM 43.6937 87.0055 57° Northeast  Level Estimated
Sat 10:25:00 PM 43.7992 87.2363 58° Northeast  Level Estimated
Sat 10:26:00 PM 43.9043 87.4680 58° Northeast  Level Estimated
Sat 10:27:00 PM 43.9071 87.4742 58° Northeast  Level Estimated
Sat 10:28:00 PM 43.9071 87.4742 144° Southeast  Level Estimated
Sat 10:29:00 PM 43.9071 87.4742 144° Southeast  Level Estimated
Sat 10:30:00 PM 43.9071 87.4742 144° Southeast  Level Estimated
Sat 10:31:00 PM 43.9071 87.4742 144° Southeast  Level Estimated
Sat 10:32:00 PM 43.9071 87.4742 144° Southeast  Level Estimated
Sat 10:33:00 PM 43.9071 87.4742 144° Southeast  Level Estimated
Sat 10:34:00 PM 43.9071 87.4742 144° Southeast  Level Estimated
Sat 10:35:00 PM 43.9071 87.4742 144° Southeast  Level Estimated
Sat 10:36:00 PM 43.9071 87.4742 144° Southeast  Level Estimated
Sat 10:37:00 PM 43.9071 87.4742 144° Southeast  Level Estimated
Sat 10:38:00 PM 43.9071 87.4742 144° Southeast  Level Estimated
Sat 10:39:00 PM 43.9071 87.4742 144° Southeast  Level Estimated
Sat 10:40:00 PM 43.9071 87.4742 144° Southeast  Level Estimated
Sat 10:41:00 PM 43.9071 87.4742 144° Southeast  Level Estimated
Sat 10:42:00 PM 43.9071 87.4742 144° Southeast  Level Estimated

Login

Don't have an account? Register now (free) for customized features, flight alerts, and more!